createdAt,value
2018-11-28T00:00:04.956Z,1042.9
2018-11-28T00:01:04.943Z,1042.9
2018-11-28T00:02:04.921Z,1042.88
2018-11-28T00:03:04.908Z,1042.85
2018-11-28T00:04:04.900Z,1042.85
2018-11-28T00:05:04.883Z,1042.81
2018-11-28T00:06:04.872Z,1042.8
2018-11-28T00:07:04.849Z,1042.78
2018-11-28T00:08:04.850Z,1042.82
2018-11-28T00:09:04.820Z,1042.85
2018-11-28T00:10:04.815Z,1042.91
2018-11-28T00:11:04.794Z,1042.95
2018-11-28T00:12:04.782Z,1042.99
2018-11-28T00:13:04.767Z,1043.01
2018-11-28T00:14:04.748Z,1043.07
2018-11-28T00:15:04.738Z,1043.1
2018-11-28T00:16:04.725Z,1043.12
2018-11-28T00:17:04.715Z,1043.11
2018-11-28T00:18:04.690Z,1043.12
2018-11-28T00:19:04.675Z,1043.13
2018-11-28T00:20:04.666Z,1043.09
2018-11-28T00:21:04.651Z,1043.06
2018-11-28T00:22:04.637Z,1043.03
2018-11-28T00:23:04.618Z,1042.99
2018-11-28T00:24:04.608Z,1042.97
2018-11-28T00:25:04.594Z,1042.93
2018-11-28T00:26:04.577Z,1042.95
2018-11-28T00:27:04.563Z,1042.92
2018-11-28T00:28:04.545Z,1042.88
2018-11-28T00:29:04.534Z,1042.89
2018-11-28T00:30:04.515Z,1042.83
2018-11-28T00:31:04.505Z,1042.88
2018-11-28T00:32:04.492Z,1042.92
2018-11-28T00:33:04.475Z,1042.97
2018-11-28T00:34:04.455Z,1042.93
2018-11-28T00:35:04.442Z,1042.98
2018-11-28T00:36:04.432Z,1043.01
2018-11-28T00:37:04.417Z,1043.02
2018-11-28T00:38:04.398Z,1043.02
2018-11-28T00:39:04.388Z,1043.08
2018-11-28T00:40:04.369Z,1043.11
2018-11-28T00:41:04.358Z,1043.06
2018-11-28T00:42:04.340Z,1043.11
2018-11-28T00:43:04.332Z,1043.11
2018-11-28T00:44:04.309Z,1043.07
2018-11-28T00:45:04.302Z,1043.07
2018-11-28T00:46:04.279Z,1043.05
2018-11-28T00:47:04.272Z,1042.99
2018-11-28T00:48:04.255Z,1043
2018-11-28T00:49:04.241Z,1042.97
2018-11-28T00:50:04.222Z,1042.97
2018-11-28T00:51:04.206Z,1042.93
2018-11-28T00:52:04.196Z,1042.95
2018-11-28T00:53:04.182Z,1042.96
2018-11-28T00:54:04.167Z,1043
2018-11-28T00:55:04.146Z,1043.02
2018-11-28T00:56:04.137Z,1043.04
2018-11-28T00:57:04.120Z,1043.08
2018-11-28T00:58:04.109Z,1043.03
2018-11-28T00:59:04.089Z,1043.03
2018-11-28T01:00:04.079Z,1043.03
2018-11-28T01:01:04.063Z,1043
2018-11-28T01:02:04.048Z,1043.01
2018-11-28T01:03:04.029Z,1043
2018-11-28T01:04:04.020Z,1042.97
2018-11-28T01:05:04.005Z,1042.97
2018-11-28T01:06:03.989Z,1042.92
2018-11-28T01:07:03.969Z,1042.96
2018-11-28T01:08:03.961Z,1042.98
2018-11-28T01:09:03.946Z,1042.99
2018-11-28T01:10:03.931Z,1043.03
2018-11-28T01:11:03.912Z,1043.06
2018-11-28T01:12:03.902Z,1043.1
2018-11-28T01:13:03.885Z,1043.13
2018-11-28T01:14:03.872Z,1043.12
2018-11-28T01:15:03.853Z,1043.08
2018-11-28T01:16:03.843Z,1043.08
2018-11-28T01:17:03.823Z,1043.07
2018-11-28T01:18:03.813Z,1043.07
2018-11-28T01:19:03.795Z,1043.09
2018-11-28T01:20:03.781Z,1043.11
2018-11-28T01:21:03.765Z,1043.1
2018-11-28T01:22:03.755Z,1043.1
2018-11-28T01:23:03.741Z,1043.13
2018-11-28T01:24:03.720Z,1043.17
2018-11-28T01:25:03.707Z,1043.14
2018-11-28T01:26:03.691Z,1043.15
2018-11-28T01:27:03.682Z,1043.14
2018-11-28T01:28:03.663Z,1043.12
2018-11-28T01:29:03.648Z,1043.08
2018-11-28T01:30:03.637Z,1043.11
2018-11-28T01:31:03.619Z,1043.13
2018-11-28T01:32:03.623Z,1043.1
2018-11-28T01:33:03.589Z,1043.16
2018-11-28T01:34:03.579Z,1043.17
2018-11-28T01:35:03.558Z,1043.18
2018-11-28T01:36:03.544Z,1043.2
2018-11-28T01:37:03.529Z,1043.21
2018-11-28T01:38:03.520Z,1043.2
2018-11-28T01:39:03.506Z,1043.2
2018-11-28T01:40:03.486Z,1043.16
2018-11-28T01:41:03.472Z,1043.14
2018-11-28T01:42:03.456Z,1043.16
2018-11-28T01:43:03.447Z,1043.09
2018-11-28T01:44:03.429Z,1043.05
2018-11-28T01:45:03.419Z,1043.06
2018-11-28T01:46:03.407Z,1043.07
2018-11-28T01:47:03.389Z,1043.12
2018-11-28T01:48:03.370Z,1043.22
2018-11-28T01:49:03.360Z,1043.28
2018-11-28T01:50:03.340Z,1043.29
2018-11-28T01:51:03.330Z,1043.4
2018-11-28T01:52:03.316Z,1043.35
2018-11-28T01:53:03.302Z,1043.4
2018-11-28T01:54:03.281Z,1043.39
2018-11-28T01:55:03.271Z,1043.42
2018-11-28T01:56:03.253Z,1043.42
2018-11-28T01:57:03.238Z,1043.47
2018-11-28T01:58:03.224Z,1043.5
2018-11-28T01:59:03.213Z,1043.58
2018-11-28T02:00:03.194Z,1043.63
2018-11-28T02:01:03.182Z,1043.66
2018-11-28T02:02:03.413Z,1043.71
2018-11-28T02:03:03.189Z,1043.68
2018-11-28T02:04:03.134Z,1043.63
2018-11-28T02:05:03.123Z,1043.67
2018-11-28T02:06:03.104Z,1043.66
2018-11-28T02:07:03.094Z,1043.63
2018-11-28T02:08:03.075Z,1043.62
2018-11-28T02:09:03.060Z,1043.66
2018-11-28T02:10:03.050Z,1043.65
2018-11-28T02:11:03.035Z,1043.66
2018-11-28T02:12:03.014Z,1043.68
2018-11-28T02:13:03.002Z,1043.63
2018-11-28T02:14:02.984Z,1043.64
2018-11-28T02:15:02.973Z,1043.66
2018-11-28T02:16:02.958Z,1043.69
2018-11-28T02:17:02.944Z,1043.66
2018-11-28T02:18:02.925Z,1043.7
2018-11-28T02:19:02.913Z,1043.66
2018-11-28T02:20:02.895Z,1043.65
2018-11-28T02:21:02.880Z,1043.69
2018-11-28T02:22:02.869Z,1043.69
2018-11-28T02:23:02.849Z,1043.74
2018-11-28T02:24:02.833Z,1043.72
2018-11-28T02:25:02.818Z,1043.66
2018-11-28T02:26:02.808Z,1043.63
2018-11-28T02:27:02.793Z,1043.57
2018-11-28T02:28:02.779Z,1043.57
2018-11-28T02:29:02.759Z,1043.58
2018-11-28T02:30:02.745Z,1043.55
2018-11-28T02:31:02.734Z,1043.58
2018-11-28T02:32:02.714Z,1043.51
2018-11-28T02:33:02.705Z,1043.54
2018-11-28T02:34:02.687Z,1043.53
2018-11-28T02:35:02.672Z,1043.54
2018-11-28T02:36:02.653Z,1043.54
2018-11-28T02:37:02.644Z,1043.54
2018-11-28T02:38:02.622Z,1043.53
2018-11-28T02:39:02.612Z,1043.54
2018-11-28T02:40:02.597Z,1043.57
2018-11-28T02:41:02.581Z,1043.59
2018-11-28T02:42:02.563Z,1043.57
2018-11-28T02:43:02.547Z,1043.6
2018-11-28T02:44:02.538Z,1043.58
2018-11-28T02:45:02.521Z,1043.58
2018-11-28T02:46:02.503Z,1043.53
2018-11-28T02:47:02.492Z,1043.55
2018-11-28T02:48:02.471Z,1043.53
2018-11-28T02:49:02.466Z,1043.57
2018-11-28T02:50:02.441Z,1043.58
2018-11-28T02:51:02.432Z,1043.65
2018-11-28T02:52:02.412Z,1043.7
2018-11-28T02:53:02.401Z,1043.71
2018-11-28T02:54:02.383Z,1043.71
2018-11-28T02:55:02.372Z,1043.67
2018-11-28T02:56:02.356Z,1043.6
2018-11-28T02:57:02.341Z,1043.61
2018-11-28T02:58:02.324Z,1043.61
2018-11-28T02:59:02.309Z,1043.6
2018-11-28T03:00:02.302Z,1043.58
2018-11-28T03:01:02.281Z,1043.59
2018-11-28T03:02:02.299Z,1043.65
2018-11-28T03:03:02.249Z,1043.62
2018-11-28T03:04:02.236Z,1043.66
2018-11-28T03:05:02.220Z,1043.68
2018-11-28T03:06:02.206Z,1043.65
2018-11-28T03:07:02.189Z,1043.67
2018-11-28T03:08:02.176Z,1043.63
2018-11-28T03:09:02.157Z,1043.62
2018-11-28T03:10:02.146Z,1043.61
2018-11-28T03:11:02.126Z,1043.63
2018-11-28T03:12:02.115Z,1043.65
2018-11-28T03:13:02.101Z,1043.68
2018-11-28T03:14:02.081Z,1043.71
2018-11-28T03:15:02.064Z,1043.73
2018-11-28T03:16:02.060Z,1043.79
2018-11-28T03:17:02.041Z,1043.87
2018-11-28T03:18:02.025Z,1043.91
2018-11-28T03:19:02.007Z,1043.93
2018-11-28T03:20:01.996Z,1043.95
2018-11-28T03:21:01.976Z,1043.98
2018-11-28T03:22:01.965Z,1043.99
2018-11-28T03:23:01.949Z,1043.97
2018-11-28T03:24:01.935Z,1043.98
2018-11-28T03:25:01.916Z,1044.01
2018-11-28T03:26:01.906Z,1044.03
2018-11-28T03:27:01.895Z,1044.01
2018-11-28T03:28:01.877Z,1044.01
2018-11-28T03:29:01.855Z,1044
2018-11-28T03:30:01.852Z,1043.94
2018-11-28T03:31:01.830Z,1043.94
2018-11-28T03:32:01.810Z,1043.92
2018-11-28T03:33:01.796Z,1043.89
2018-11-28T03:34:01.779Z,1043.9
2018-11-28T03:35:01.770Z,1043.92
2018-11-28T03:36:01.747Z,1043.92
2018-11-28T03:37:01.739Z,1043.97
2018-11-28T03:38:01.722Z,1043.98
2018-11-28T03:39:01.702Z,1043.99
2018-11-28T03:40:01.697Z,1044.01
2018-11-28T03:41:01.674Z,1044.12
2018-11-28T03:42:01.664Z,1044.21
2018-11-28T03:43:01.642Z,1044.31
2018-11-28T03:44:01.627Z,1044.35
2018-11-28T03:45:01.618Z,1044.46
2018-11-28T03:46:01.610Z,1044.48
2018-11-28T03:47:01.584Z,1044.52
2018-11-28T03:48:01.570Z,1044.61
2018-11-28T03:49:01.559Z,1044.63
2018-11-28T03:50:01.541Z,1044.69
2018-11-28T03:51:01.518Z,1044.73
2018-11-28T03:52:01.508Z,1044.8
2018-11-28T03:53:01.488Z,1044.83
2018-11-28T03:54:01.477Z,1044.89
2018-11-28T03:55:01.463Z,1044.96
2018-11-28T03:56:01.448Z,1045.01
2018-11-28T03:57:01.432Z,1045.12
2018-11-28T03:58:01.416Z,1045.15
2018-11-28T03:59:01.394Z,1045.21
2018-11-28T04:00:01.383Z,1045.24
2018-11-28T04:01:01.364Z,1045.29
2018-11-28T04:02:01.352Z,1045.3
2018-11-28T04:03:01.331Z,1045.37
2018-11-28T04:04:01.321Z,1045.41
2018-11-28T04:05:01.307Z,1045.41
2018-11-28T04:06:01.288Z,1045.48
2018-11-28T04:07:01.270Z,1045.52
2018-11-28T04:08:01.258Z,1045.55
2018-11-28T04:09:01.236Z,1045.59
2018-11-28T04:10:01.229Z,1045.62
2018-11-28T04:11:01.205Z,1045.7
2018-11-28T04:12:01.192Z,1045.76
2018-11-28T04:13:01.170Z,1045.75
2018-11-28T04:14:01.160Z,1045.78
2018-11-28T04:15:01.139Z,1045.81
2018-11-28T04:16:01.124Z,1045.82
2018-11-28T04:17:01.106Z,1045.87
2018-11-28T04:18:01.096Z,1045.86
2018-11-28T04:19:01.079Z,1045.89
2018-11-28T04:20:01.057Z,1045.9
2018-11-28T04:21:01.042Z,1045.93
2018-11-28T04:22:01.027Z,1046.01
2018-11-28T04:23:01.011Z,1046.06
2018-11-28T04:24:00.991Z,1046.1
2018-11-28T04:25:00.978Z,1046.19
2018-11-28T04:26:00.956Z,1046.19
2018-11-28T04:27:00.945Z,1046.23
2018-11-28T04:28:00.926Z,1046.29
2018-11-28T04:29:00.915Z,1046.3
2018-11-28T04:30:00.899Z,1046.35
2018-11-28T04:31:00.874Z,1046.39
2018-11-28T04:32:00.861Z,1046.42
2018-11-28T04:33:00.855Z,1046.41
2018-11-28T04:34:00.829Z,1046.43
2018-11-28T04:35:00.812Z,1046.46
2018-11-28T04:36:00.789Z,1046.49
2018-11-28T04:37:00.773Z,1046.55
2018-11-28T04:38:01.006Z,1046.48
2018-11-28T04:39:00.746Z,1046.52
2018-11-28T04:40:00.725Z,1046.52
2018-11-28T04:41:00.711Z,1046.57
2018-11-28T04:42:00.688Z,1046.58
2018-11-28T04:43:00.675Z,1046.6
2018-11-28T04:44:00.654Z,1046.62
2018-11-28T04:45:00.641Z,1046.62
2018-11-28T04:46:00.618Z,1046.61
2018-11-28T04:47:00.607Z,1046.64
2018-11-28T04:48:00.591Z,1046.68
2018-11-28T04:49:00.573Z,1046.66
2018-11-28T04:50:00.553Z,1046.71
2018-11-28T04:51:00.533Z,1046.68
2018-11-28T04:52:00.522Z,1046.71
2018-11-28T04:53:00.504Z,1046.74
2018-11-28T04:54:00.483Z,1046.79
2018-11-28T04:55:00.473Z,1046.78
2018-11-28T04:56:00.449Z,1046.77
2018-11-28T04:57:00.435Z,1046.79
2018-11-28T04:58:00.414Z,1046.8
2018-11-28T04:59:00.430Z,1046.78
2018-11-28T05:00:00.379Z,1046.78
2018-11-28T05:01:00.367Z,1046.75
2018-11-28T05:02:00.347Z,1046.83
2018-11-28T05:03:00.331Z,1046.77
2018-11-28T05:04:00.314Z,1046.82
2018-11-28T05:05:00.297Z,1046.82
2018-11-28T05:06:00.284Z,1046.88
2018-11-28T05:07:00.257Z,1046.89
2018-11-28T05:08:00.319Z,1046.94
2018-11-28T05:09:00.228Z,1046.92
2018-11-28T05:10:00.210Z,1046.9
2018-11-28T05:11:00.188Z,1046.91
2018-11-28T05:12:00.175Z,1046.92
2018-11-28T05:13:00.157Z,1046.95
2018-11-28T05:14:00.140Z,1046.95
2018-11-28T05:15:00.117Z,1046.97
2018-11-28T05:16:00.104Z,1046.98
2018-11-28T05:17:00.084Z,1047.01
2018-11-28T05:18:00.070Z,1046.99
2018-11-28T05:19:00.049Z,1046.98
2018-11-28T05:20:00.036Z,1046.99
2018-11-28T05:21:00.018Z,1046.98
2018-11-28T05:21:59.995Z,1047
2018-11-28T05:22:59.979Z,1047.01
2018-11-28T05:23:59.966Z,1046.98
2018-11-28T05:24:59.948Z,1047.01
2018-11-28T05:25:59.930Z,1047.01
2018-11-28T05:26:59.908Z,1047
2018-11-28T05:27:59.895Z,1047.01
2018-11-28T05:28:59.875Z,1047.03
2018-11-28T05:29:59.860Z,1047.05
2018-11-28T05:30:59.838Z,1047.04
2018-11-28T05:31:59.826Z,1047.05
2018-11-28T05:32:59.804Z,1047.07
2018-11-28T05:33:59.790Z,1047.06
2018-11-28T05:34:59.766Z,1047.08
2018-11-28T05:35:59.750Z,1047.1
2018-11-28T05:36:59.732Z,1047.12
2018-11-28T05:37:59.723Z,1047.14
2018-11-28T05:38:59.702Z,1047.15
2018-11-28T05:39:59.678Z,1047.18
2018-11-28T05:40:59.660Z,1047.14
2018-11-28T05:41:59.644Z,1047.1
2018-11-28T05:42:59.633Z,1047.12
2018-11-28T05:43:59.608Z,1047.12
2018-11-28T05:44:59.592Z,1047.08
2018-11-28T05:45:59.578Z,1047.1
2018-11-28T05:46:59.556Z,1047.13
2018-11-28T05:47:59.543Z,1047.17
2018-11-28T05:48:59.520Z,1047.19
2018-11-28T05:49:59.508Z,1047.23
2018-11-28T05:50:59.484Z,1047.26
2018-11-28T05:51:59.466Z,1047.28
2018-11-28T05:52:59.452Z,1047.33
2018-11-28T05:53:59.436Z,1047.33
2018-11-28T05:54:59.493Z,1047.32
2018-11-28T05:55:59.397Z,1047.33
2018-11-28T05:56:59.379Z,1047.32
2018-11-28T05:57:59.360Z,1047.3
2018-11-28T05:58:59.347Z,1047.35
2018-11-28T05:59:59.325Z,1047.37
2018-11-28T06:00:59.312Z,1047.36
2018-11-28T06:01:59.289Z,1047.38
2018-11-28T06:02:59.276Z,1047.38
2018-11-28T06:03:59.258Z,1047.39
2018-11-28T06:04:59.242Z,1047.45
2018-11-28T06:05:59.220Z,1047.43
2018-11-28T06:06:59.206Z,1047.44
2018-11-28T06:07:59.188Z,1047.45
2018-11-28T06:08:59.169Z,1047.49
2018-11-28T06:09:59.151Z,1047.53
2018-11-28T06:10:59.135Z,1047.5
2018-11-28T06:11:59.120Z,1047.54
2018-11-28T06:12:59.095Z,1047.51
2018-11-28T06:13:59.078Z,1047.54
2018-11-28T06:14:59.064Z,1047.55
2018-11-28T06:15:59.040Z,1047.57
2018-11-28T06:16:59.028Z,1047.6
2018-11-28T06:17:59.010Z,1047.56
2018-11-28T06:18:58.992Z,1047.63
2018-11-28T06:19:58.970Z,1047.67
2018-11-28T06:20:58.956Z,1047.7
2018-11-28T06:21:58.942Z,1047.69
2018-11-28T06:22:58.920Z,1047.7
2018-11-28T06:23:58.903Z,1047.68
2018-11-28T06:24:58.884Z,1047.7
2018-11-28T06:25:58.862Z,1047.7
2018-11-28T06:26:58.845Z,1047.72
2018-11-28T06:27:58.832Z,1047.69
2018-11-28T06:28:58.815Z,1047.68
2018-11-28T06:29:58.798Z,1047.69
2018-11-28T06:30:58.772Z,1047.68
2018-11-28T06:31:58.762Z,1047.74
2018-11-28T06:32:58.738Z,1047.72
2018-11-28T06:33:58.725Z,1047.76
2018-11-28T06:34:58.703Z,1047.78
2018-11-28T06:35:58.689Z,1047.77
2018-11-28T06:36:58.672Z,1047.77
2018-11-28T06:37:58.647Z,1047.81
2018-11-28T06:38:58.636Z,1047.79
2018-11-28T06:39:58.618Z,1047.79
2018-11-28T06:40:58.604Z,1047.78
2018-11-28T06:41:58.577Z,1047.77
2018-11-28T06:42:58.559Z,1047.78
2018-11-28T06:43:58.549Z,1047.76
2018-11-28T06:44:58.529Z,1047.78
2018-11-28T06:45:58.510Z,1047.77
2018-11-28T06:46:58.488Z,1047.8
2018-11-28T06:47:58.476Z,1047.77
2018-11-28T06:48:58.451Z,1047.75
2018-11-28T06:49:58.438Z,1047.77
2018-11-28T06:50:58.417Z,1047.77
2018-11-28T06:51:58.406Z,1047.73
2018-11-28T06:52:58.380Z,1047.71
2018-11-28T06:53:58.366Z,1047.71
2018-11-28T06:54:58.344Z,1047.73
2018-11-28T06:55:58.326Z,1047.73
2018-11-28T06:56:58.308Z,1047.74
2018-11-28T06:57:58.295Z,1047.71
2018-11-28T06:58:58.277Z,1047.73
2018-11-28T06:59:58.255Z,1047.73
2018-11-28T07:00:58.236Z,1047.7
2018-11-28T07:01:58.223Z,1047.65
2018-11-28T07:02:58.202Z,1047.62
2018-11-28T07:03:58.187Z,1047.65
2018-11-28T07:04:58.165Z,1047.65
2018-11-28T07:05:58.152Z,1047.65
2018-11-28T07:06:58.129Z,1047.66
2018-11-28T07:07:58.120Z,1047.69
2018-11-28T07:08:58.092Z,1047.66
2018-11-28T07:09:58.081Z,1047.7
2018-11-28T07:10:58.058Z,1047.7
2018-11-28T07:11:58.039Z,1047.71
2018-11-28T07:12:58.022Z,1047.66
2018-11-28T07:13:58.267Z,1047.66
2018-11-28T07:14:57.986Z,1047.69
2018-11-28T07:15:57.973Z,1047.66
2018-11-28T07:16:57.955Z,1047.62
2018-11-28T07:17:57.937Z,1047.64
2018-11-28T07:18:57.914Z,1047.61
2018-11-28T07:19:57.902Z,1047.6
2018-11-28T07:20:57.879Z,1047.62
2018-11-28T07:21:57.865Z,1047.6
2018-11-28T07:22:57.849Z,1047.57
2018-11-28T07:23:57.830Z,1047.54
2018-11-28T07:24:57.809Z,1047.57
2018-11-28T07:25:57.794Z,1047.56
2018-11-28T07:26:57.772Z,1047.56
2018-11-28T07:27:57.759Z,1047.54
2018-11-28T07:28:57.742Z,1047.53
2018-11-28T07:29:57.719Z,1047.54
2018-11-28T07:30:57.701Z,1047.54
2018-11-28T07:31:57.688Z,1047.56
2018-11-28T07:32:57.677Z,1047.55
2018-11-28T07:33:57.707Z,1047.51
2018-11-28T07:34:57.631Z,1047.48
2018-11-28T07:35:57.617Z,1047.46
2018-11-28T07:36:57.596Z,1047.48
2018-11-28T07:37:57.587Z,1047.47
2018-11-28T07:38:57.560Z,1047.47
2018-11-28T07:39:57.548Z,1047.46
2018-11-28T07:40:57.526Z,1047.43
2018-11-28T07:41:57.512Z,1047.48
2018-11-28T07:42:57.492Z,1047.48
2018-11-28T07:43:57.471Z,1047.44
2018-11-28T07:44:57.456Z,1047.46
2018-11-28T07:45:57.442Z,1047.46
2018-11-28T07:46:57.425Z,1047.46
2018-11-28T07:47:57.402Z,1047.49
2018-11-28T07:48:57.386Z,1047.46
2018-11-28T07:49:57.368Z,1047.48
2018-11-28T07:50:57.355Z,1047.48
2018-11-28T07:51:57.332Z,1047.44
2018-11-28T07:52:57.315Z,1047.45
2018-11-28T07:53:57.305Z,1047.39
2018-11-28T07:54:57.279Z,1047.42
2018-11-28T07:55:57.268Z,1047.43
2018-11-28T07:56:57.246Z,1047.38
2018-11-28T07:57:57.235Z,1047.4
2018-11-28T07:58:57.211Z,1047.39
2018-11-28T07:59:57.195Z,1047.38
2018-11-28T08:00:57.177Z,1047.37
2018-11-28T08:01:57.165Z,1047.33
2018-11-28T08:02:57.148Z,1047.36
2018-11-28T08:03:57.126Z,1047.35
2018-11-28T08:04:57.109Z,1047.32
2018-11-28T08:05:57.091Z,1047.32
2018-11-28T08:06:57.085Z,1047.33
2018-11-28T08:07:57.062Z,1047.28
2018-11-28T08:08:57.047Z,1047.3
2018-11-28T08:09:57.025Z,1047.26
2018-11-28T08:10:57.012Z,1047.25
2018-11-28T08:11:56.989Z,1047.29
2018-11-28T08:12:56.977Z,1047.26
2018-11-28T08:13:56.955Z,1047.28
2018-11-28T08:14:56.944Z,1047.26
2018-11-28T08:15:56.927Z,1047.24
2018-11-28T08:16:56.910Z,1047.24
2018-11-28T08:17:56.895Z,1047.2
2018-11-28T08:18:56.876Z,1047.23
2018-11-28T08:19:56.855Z,1047.19
2018-11-28T08:20:56.837Z,1047.16
2018-11-28T08:21:56.823Z,1047.12
2018-11-28T08:22:56.808Z,1047.1
2018-11-28T08:23:56.786Z,1047.12
2018-11-28T08:24:56.774Z,1047.1
2018-11-28T08:25:56.753Z,1047.09
2018-11-28T08:26:56.741Z,1047.17
2018-11-28T08:27:56.793Z,1047.1
2018-11-28T08:28:56.707Z,1047.11
2018-11-28T08:29:56.686Z,1047.1
2018-11-28T08:30:56.674Z,1047.06
2018-11-28T08:31:56.656Z,1047
2018-11-28T08:32:56.640Z,1047
2018-11-28T08:33:56.620Z,1047.02
2018-11-28T08:34:56.601Z,1047
2018-11-28T08:35:56.590Z,1047.01
2018-11-28T08:36:56.574Z,1047.01
2018-11-28T08:37:56.556Z,1046.97
2018-11-28T08:38:56.535Z,1046.97
2018-11-28T08:39:56.523Z,1046.94
2018-11-28T08:40:56.501Z,1046.94
2018-11-28T08:41:56.490Z,1046.96
2018-11-28T08:42:56.473Z,1046.94
2018-11-28T08:43:56.457Z,1046.91
2018-11-28T08:44:56.440Z,1046.92
2018-11-28T08:45:56.419Z,1046.93
2018-11-28T08:46:56.417Z,1046.9
2018-11-28T08:47:56.391Z,1046.87
2018-11-28T08:48:56.374Z,1046.89
2018-11-28T08:49:56.591Z,1046.87
2018-11-28T08:50:56.339Z,1046.86
2018-11-28T08:51:56.325Z,1046.82
2018-11-28T08:52:56.309Z,1046.83
2018-11-28T08:53:56.316Z,1046.78
2018-11-28T08:54:56.270Z,1046.77
2018-11-28T08:55:56.259Z,1046.74
2018-11-28T08:56:56.242Z,1046.75
2018-11-28T08:57:56.222Z,1046.72
2018-11-28T08:58:56.220Z,1046.7
2018-11-28T08:59:56.189Z,1046.71
2018-11-28T09:00:56.177Z,1046.67
2018-11-28T09:01:56.159Z,1046.71
2018-11-28T09:02:56.144Z,1046.66
2018-11-28T09:03:56.128Z,1046.72
2018-11-28T09:04:56.111Z,1046.65
2018-11-28T09:05:56.090Z,1046.65
2018-11-28T09:06:56.075Z,1046.66
2018-11-28T09:07:56.063Z,1046.69
2018-11-28T09:08:56.047Z,1046.69
2018-11-28T09:09:56.025Z,1046.73
2018-11-28T09:10:56.014Z,1046.68
2018-11-28T09:11:55.994Z,1046.72
2018-11-28T09:12:55.982Z,1046.69
2018-11-28T09:13:55.962Z,1046.65
2018-11-28T09:14:55.950Z,1046.65
2018-11-28T09:15:55.928Z,1046.58
2018-11-28T09:16:55.917Z,1046.58
2018-11-28T09:17:55.896Z,1046.53
2018-11-28T09:18:56.136Z,1046.51
2018-11-28T09:19:55.868Z,1046.5
2018-11-28T09:20:55.855Z,1046.48
2018-11-28T09:21:55.833Z,1046.47
2018-11-28T09:22:55.815Z,1046.48
2018-11-28T09:23:55.804Z,1046.41
2018-11-28T09:24:55.790Z,1046.4
2018-11-28T09:25:55.773Z,1046.45
2018-11-28T09:26:55.751Z,1046.4
2018-11-28T09:27:55.741Z,1046.4
2018-11-28T09:28:55.719Z,1046.44
2018-11-28T09:29:55.710Z,1046.44
2018-11-28T09:30:55.688Z,1046.36
2018-11-28T09:31:55.677Z,1046.4
2018-11-28T09:32:55.669Z,1046.37
2018-11-28T09:33:55.645Z,1046.38
2018-11-28T09:34:55.624Z,1046.34
2018-11-28T09:35:55.613Z,1046.32
2018-11-28T09:36:55.600Z,1046.31
2018-11-28T09:37:55.577Z,1046.3
2018-11-28T09:38:55.562Z,1046.22
2018-11-28T09:39:55.551Z,1046.23
2018-11-28T09:40:55.539Z,1046.23
2018-11-28T09:41:55.519Z,1046.22
2018-11-28T09:42:55.499Z,1046.17
2018-11-28T09:43:55.488Z,1046.19
2018-11-28T09:44:55.469Z,1046.21
2018-11-28T09:45:55.460Z,1046.22
2018-11-28T09:46:55.438Z,1046.22
2018-11-28T09:47:55.425Z,1046.23
2018-11-28T09:48:55.404Z,1046.26
2018-11-28T09:49:55.394Z,1046.17
2018-11-28T09:50:55.375Z,1046.12
2018-11-28T09:51:55.357Z,1046.15
2018-11-28T09:52:55.351Z,1046.1
2018-11-28T09:53:55.332Z,1046.06
2018-11-28T09:54:55.317Z,1046.04
2018-11-28T09:55:55.295Z,1046.06
2018-11-28T09:56:55.281Z,1046.02
2018-11-28T09:57:55.274Z,1046.03
2018-11-28T09:58:55.254Z,1046.03
2018-11-28T09:59:55.234Z,1045.94
2018-11-28T10:00:55.218Z,1045.97
2018-11-28T10:01:55.208Z,1045.93
2018-11-28T10:02:55.187Z,1045.92
2018-11-28T10:03:55.177Z,1045.86
2018-11-28T10:04:55.157Z,1045.85
2018-11-28T10:05:55.147Z,1045.81
2018-11-28T10:06:55.125Z,1045.79
2018-11-28T10:07:55.139Z,1045.79
2018-11-28T10:08:55.096Z,1045.79
2018-11-28T10:09:55.084Z,1045.76
2018-11-28T10:10:55.069Z,1045.76
2018-11-28T10:11:55.051Z,1045.75
2018-11-28T10:12:55.035Z,1045.73
2018-11-28T10:13:55.018Z,1045.68
2018-11-28T10:14:55.009Z,1045.61
2018-11-28T10:15:54.990Z,1045.67
2018-11-28T10:16:55.343Z,1045.6
2018-11-28T10:17:54.959Z,1045.6
2018-11-28T10:18:54.948Z,1045.61
2018-11-28T10:19:54.928Z,1045.56
2018-11-28T10:20:54.917Z,1045.61
2018-11-28T10:21:54.897Z,1045.56
2018-11-28T10:22:54.888Z,1045.54
2018-11-28T10:23:54.875Z,1045.51
2018-11-28T10:24:54.857Z,1045.45
2018-11-28T10:25:54.838Z,1045.45
2018-11-28T10:26:54.828Z,1045.39
2018-11-28T10:27:54.807Z,1045.31
2018-11-28T10:28:54.792Z,1045.27
2018-11-28T10:29:54.779Z,1045.23
2018-11-28T10:30:54.767Z,1045.18
2018-11-28T10:31:54.747Z,1045.15
2018-11-28T10:32:54.737Z,1045.12
2018-11-28T10:33:54.717Z,1045.16
2018-11-28T10:34:54.709Z,1045.13
2018-11-28T10:35:54.689Z,1045.16
2018-11-28T10:36:54.678Z,1045.2
2018-11-28T10:37:54.661Z,1045.2
2018-11-28T10:38:54.649Z,1045.2
2018-11-28T10:39:54.634Z,1045.16
2018-11-28T10:40:54.614Z,1045.17
2018-11-28T10:41:54.604Z,1045.1
2018-11-28T10:42:54.592Z,1045.09
2018-11-28T10:43:54.569Z,1045.06
2018-11-28T10:44:54.557Z,1045.08
2018-11-28T10:45:54.540Z,1045.04
2018-11-28T10:46:54.531Z,1045.01
2018-11-28T10:47:54.511Z,1045.02
2018-11-28T10:48:54.501Z,1044.94
2018-11-28T10:49:54.483Z,1044.97
2018-11-28T10:50:54.472Z,1044.92
2018-11-28T10:51:54.453Z,1044.92
2018-11-28T10:52:54.438Z,1044.85
2018-11-28T10:53:54.436Z,1044.9
2018-11-28T10:54:54.409Z,1044.82
2018-11-28T10:55:54.394Z,1044.83
2018-11-28T10:56:54.380Z,1044.79
2018-11-28T10:57:54.371Z,1044.8
2018-11-28T10:58:54.359Z,1044.76
2018-11-28T10:59:54.342Z,1044.76
2018-11-28T11:00:54.324Z,1044.75
2018-11-28T11:01:54.309Z,1044.75
2018-11-28T11:02:54.298Z,1044.79
2018-11-28T11:03:54.278Z,1044.82
2018-11-28T11:04:54.269Z,1044.79
2018-11-28T11:05:54.250Z,1044.76
2018-11-28T11:06:54.241Z,1044.72
2018-11-28T11:07:54.222Z,1044.75
2018-11-28T11:08:54.220Z,1044.85
2018-11-28T11:09:54.193Z,1044.75
2018-11-28T11:10:54.184Z,1044.79
2018-11-28T11:11:54.170Z,1044.76
2018-11-28T11:12:54.156Z,1044.69
2018-11-28T11:13:54.137Z,1044.75
2018-11-28T11:14:54.123Z,1044.71
2018-11-28T11:15:54.116Z,1044.75
2018-11-28T11:16:54.102Z,1044.66
2018-11-28T11:17:54.081Z,1044.64
2018-11-28T11:18:54.071Z,1044.62
2018-11-28T11:19:54.051Z,1044.56
2018-11-28T11:20:54.046Z,1044.56
2018-11-28T11:21:54.023Z,1044.62
2018-11-28T11:22:54.013Z,1044.65
2018-11-28T11:23:54.246Z,1044.63
2018-11-28T11:24:53.986Z,1044.63
2018-11-28T11:25:53.966Z,1044.66
2018-11-28T11:26:53.957Z,1044.63
2018-11-28T11:27:53.943Z,1044.64
2018-11-28T11:28:53.929Z,1044.69
2018-11-28T11:29:53.910Z,1044.62
2018-11-28T11:30:53.897Z,1044.62
2018-11-28T11:31:53.887Z,1044.65
2018-11-28T11:32:53.873Z,1044.69
2018-11-28T11:33:53.858Z,1044.64
2018-11-28T11:34:53.839Z,1044.66
2018-11-28T11:35:53.830Z,1044.65
2018-11-28T11:36:53.811Z,1044.63
2018-11-28T11:37:53.801Z,1044.62
2018-11-28T11:38:53.783Z,1044.72
2018-11-28T11:39:53.774Z,1044.65
2018-11-28T11:40:53.755Z,1044.64
2018-11-28T11:41:53.745Z,1044.59
2018-11-28T11:42:53.727Z,1044.57
2018-11-28T11:43:53.718Z,1044.62
2018-11-28T11:44:53.719Z,1044.62
2018-11-28T11:45:53.685Z,1044.62
2018-11-28T11:46:53.670Z,1044.63
2018-11-28T11:47:53.661Z,1044.61
2018-11-28T11:48:53.647Z,1044.62
2018-11-28T11:49:53.633Z,1044.61
2018-11-28T11:50:53.622Z,1044.62
2018-11-28T11:51:53.605Z,1044.62
2018-11-28T11:52:53.586Z,1044.6
2018-11-28T11:53:53.577Z,1044.57
2018-11-28T11:54:53.808Z,1044.55
2018-11-28T11:55:53.547Z,1044.5
2018-11-28T11:56:53.530Z,1044.5
2018-11-28T11:57:53.619Z,1044.51
2018-11-28T11:58:53.501Z,1044.46
2018-11-28T11:59:53.486Z,1044.52
2018-11-28T12:00:53.549Z,1044.47
2018-11-28T12:01:54.780Z,1044.46
2018-11-28T12:02:53.450Z,1044.46
2018-11-28T12:03:53.431Z,1044.47
2018-11-28T12:04:53.417Z,1044.48
2018-11-28T12:05:53.406Z,1044.41
2018-11-28T12:06:53.393Z,1044.39
2018-11-28T12:07:53.374Z,1044.37